Oakland County International Airport
KPTK : now visible

Airfield :











YOU CAN JOIN US ON...

 
LOGIN :

Register | Disclaimer

   EN    FR    IT 

 









Legend :    VFR   Marginal VFR   IFR   Intensive IFR   Very Intensive IFR
Visi :
Ceiling :
>= 8 km
>= 3000ft
5 to 8 km
1000 to 3000 ft
1500m to 5 km
500 to 1000 ft
800 to 1500m
200 to 500 ft
< 800m
< 200 ft
Symbols :   Thunderstorms  Fog  Heavy snow  Heavy precipitations  Wind > 20 kt






- Airport Elevation : 980 ft


KPTK - Oakland County International

CURRENT METAR :
  • 172153Z 11008KT 10SM FEW060 OVC075 M01/M06 A3013 RMK AO2 SLP216 T10061061

EXPIRED METARs :
  • 172053Z 11012KT 10SM OVC075 M01/M06 A3014 RMK AO2 SLP218 T10061061 56022
  • 171953Z 10011KT 10SM OVC065 M01/M07 A3015 RMK AO2 SLP223 T10111072

TAF KPTK
Valid from the 17 at 18:00 until the 18 at 18:00 UTC


171720Z 1718/1818 11010KT P6SM BKN080 OVC120
FM180200 12008KT 2SM -SN SCT018 OVC040
FM180500 12006KT 3SM -RA BR OVC008
FM180800 15006KT 2SM -DZ BR OVC004
FM181100 24010G18KT P6SM OVC012
FM181500 28014G24KT P6SM OVC018



MET'MAP, your aeronautical weather chart ! - Copyright ORBIFLY December 2007 - Disclaimer

ORBIFLY MET'MAP TEAM :

Programming & Development : Alexandra Zaïnal
Concept & original design : Baudouin d'Aumeries
Assistance for programming : Marc-Olivier Méhu
Technical & hardware support : Manuel Goepfert

Contact : metmap@orbifly.com




SOURCES & CREDITS :

   NOAA       Earth
Advisory